createdAt,value
2022-11-17T00:00:45.368Z,95.47
2022-11-17T00:03:16.379Z,96.02
2022-11-17T00:05:46.118Z,95.72
2022-11-17T00:08:15.715Z,94.79
2022-11-17T00:10:45.313Z,95.54
2022-11-17T00:13:32.707Z,95.52
2022-11-17T00:16:02.986Z,95.27
2022-11-17T00:18:51.341Z,95.38
2022-11-17T00:21:21.639Z,94.62
2022-11-17T00:23:51.317Z,94.90
2022-11-17T00:26:22.212Z,94.88
2022-11-17T00:28:55.513Z,95.10
2022-11-17T00:31:43.040Z,95.49
2022-11-17T00:34:15.229Z,95.48
2022-11-17T00:36:45.692Z,95.25
2022-11-17T00:39:16.623Z,95.98
2022-11-17T00:41:46.660Z,96.22
2022-11-17T00:44:16.612Z,96.41
2022-11-17T00:46:46.405Z,96.64
2022-11-17T00:49:17.886Z,96.84
2022-11-17T00:51:47.418Z,96.85
2022-11-17T00:54:16.938Z,97.49
2022-11-17T00:56:46.924Z,97.69
2022-11-17T00:59:16.754Z,97.92
2022-11-17T01:01:46.682Z,97.20
2022-11-17T01:04:17.605Z,97.75
2022-11-17T01:06:48.179Z,97.72
2022-11-17T01:09:19.593Z,97.68
2022-11-17T01:11:52.653Z,97.56
2022-11-17T01:14:23.953Z,97.62
2022-11-17T01:16:54.478Z,97.81
2022-11-17T01:19:25.509Z,98.05
2022-11-17T01:21:55.087Z,97.74
2022-11-17T01:24:24.612Z,97.97
2022-11-17T01:26:54.128Z,97.81
2022-11-17T01:29:23.719Z,98.22
2022-11-17T01:31:53.408Z,98.18
2022-11-17T01:34:23.051Z,98.10
2022-11-17T01:37:11.520Z,98.24
2022-11-17T01:39:41.109Z,98.46
2022-11-17T01:42:13.464Z,98.00
2022-11-17T01:44:53.197Z,97.84
2022-11-17T01:47:24.955Z,97.92
2022-11-17T01:49:57.439Z,98.30
2022-11-17T01:52:28.981Z,98.40
2022-11-17T01:55:00.513Z,98.40
2022-11-17T01:57:33.707Z,98.64
2022-11-17T02:00:06.150Z,99.20
2022-11-17T02:02:36.632Z,99.08
2022-11-17T02:05:09.780Z,99.54
2022-11-17T02:07:41.875Z,99.09
2022-11-17T02:10:11.601Z,99.23
2022-11-17T02:12:42.056Z,98.89
2022-11-17T02:15:12.415Z,98.77
2022-11-17T02:17:43.263Z,99.23
2022-11-17T02:20:14.497Z,99.15
2022-11-17T02:23:06.162Z,99.28
2022-11-17T02:25:43.062Z,98.59
2022-11-17T02:28:17.923Z,98.55
2022-11-17T02:30:53.888Z,98.56
2022-11-17T02:33:27.226Z,98.77
2022-11-17T02:36:02.752Z,99.30
2022-11-17T02:38:34.233Z,98.77
2022-11-17T02:41:07.677Z,99.06
2022-11-17T02:43:59.612Z,99.09
2022-11-17T02:46:30.517Z,99.17
2022-11-17T02:49:02.185Z,99.07
2022-11-17T02:51:32.263Z,98.87
2022-11-17T02:54:02.685Z,98.64
2022-11-17T02:56:32.288Z,98.62
2022-11-17T02:59:04.205Z,98.43
2022-11-17T03:01:54.895Z,98.56
2022-11-17T03:04:31.526Z,98.18
2022-11-17T03:07:08.177Z,98.26
2022-11-17T03:09:45.409Z,98.35
2022-11-17T03:12:19.938Z,97.90
2022-11-17T03:14:59.240Z,98.01
2022-11-17T03:17:32.887Z,98.17
2022-11-17T03:20:05.001Z,97.74
2022-11-17T03:22:37.169Z,98.33
2022-11-17T03:25:08.029Z,98.85
2022-11-17T03:27:39.151Z,98.59
2022-11-17T03:30:11.093Z,98.49
2022-11-17T03:32:42.186Z,98.95
2022-11-17T03:35:13.898Z,98.87
2022-11-17T03:37:47.224Z,98.62
2022-11-17T03:40:19.654Z,98.40
2022-11-17T03:42:53.866Z,99.16
2022-11-17T03:45:26.493Z,98.66
2022-11-17T03:47:59.925Z,99.05
2022-11-17T03:50:33.468Z,98.62
2022-11-17T03:53:04.156Z,98.55
2022-11-17T03:55:37.717Z,99.34
2022-11-17T03:58:09.617Z,99.04
2022-11-17T04:00:42.342Z,98.41
2022-11-17T04:03:13.592Z,98.72
2022-11-17T04:05:43.415Z,98.38
2022-11-17T04:08:14.249Z,97.88
2022-11-17T04:10:57.582Z,98.25
2022-11-17T04:13:45.090Z,97.97
2022-11-17T04:16:16.514Z,98.26
2022-11-17T04:18:46.205Z,98.59
2022-11-17T04:21:16.004Z,98.91
2022-11-17T04:23:45.636Z,98.94
2022-11-17T04:26:32.884Z,98.47
2022-11-17T04:29:02.609Z,98.62
2022-11-17T04:31:33.512Z,98.82
2022-11-17T04:34:04.249Z,98.70
2022-11-17T04:36:36.415Z,98.43
2022-11-17T04:39:06.315Z,98.20
2022-11-17T04:41:56.237Z,97.70
2022-11-17T04:44:27.688Z,98.48
2022-11-17T04:46:59.496Z,98.39
2022-11-17T04:49:29.264Z,98.10
2022-11-17T04:51:58.865Z,98.10
2022-11-17T04:54:28.411Z,97.85
2022-11-17T04:56:57.989Z,98.26
2022-11-17T04:59:27.689Z,97.25
2022-11-17T05:02:01.153Z,97.87
2022-11-17T05:04:51.071Z,97.61
2022-11-17T05:07:20.793Z,97.65
2022-11-17T05:09:50.581Z,97.41
2022-11-17T05:12:38.190Z,97.51
2022-11-17T05:15:08.647Z,98.07
2022-11-17T05:17:37.835Z,97.34
2022-11-17T05:20:09.355Z,97.88
2022-11-17T05:22:56.301Z,97.52
2022-11-17T05:25:25.982Z,97.60
2022-11-17T05:27:55.588Z,98.10
2022-11-17T05:30:25.196Z,97.82
2022-11-17T05:32:54.733Z,97.86
2022-11-17T05:35:25.673Z,97.42
2022-11-17T05:37:55.722Z,97.94
2022-11-17T05:40:25.303Z,97.75
2022-11-17T05:42:57.182Z,98.11
2022-11-17T05:45:26.962Z,97.59
2022-11-17T05:47:56.465Z,97.98
2022-11-17T05:50:27.528Z,97.78
2022-11-17T05:52:57.026Z,97.88
2022-11-17T05:55:26.938Z,97.37
2022-11-17T05:57:59.750Z,97.20
2022-11-17T06:00:30.014Z,97.49
2022-11-17T06:03:01.653Z,97.29
2022-11-17T06:05:32.605Z,97.23
2022-11-17T06:08:02.109Z,96.68
2022-11-17T06:10:31.708Z,96.58
2022-11-17T06:13:01.180Z,96.31
2022-11-17T06:15:31.138Z,96.57
2022-11-17T06:18:02.410Z,96.69
2022-11-17T06:20:35.044Z,96.71
2022-11-17T06:23:07.121Z,96.82
2022-11-17T06:25:37.827Z,96.63
2022-11-17T06:28:09.454Z,96.95
2022-11-17T06:30:39.680Z,96.81
2022-11-17T06:33:11.738Z,96.42
2022-11-17T06:35:44.704Z,96.97
2022-11-17T06:38:14.488Z,97.08
2022-11-17T06:40:44.230Z,96.49
2022-11-17T06:43:13.893Z,96.67
2022-11-17T06:45:44.140Z,96.47
2022-11-17T06:48:14.693Z,96.50
2022-11-17T06:50:45.776Z,96.36
2022-11-17T06:53:15.435Z,96.00
2022-11-17T06:55:47.287Z,95.67
2022-11-17T06:58:16.975Z,95.67
2022-11-17T07:00:46.720Z,95.29
2022-11-17T07:03:16.426Z,95.17
2022-11-17T07:05:48.271Z,95.09
2022-11-17T07:08:19.080Z,94.84
2022-11-17T07:10:54.638Z,94.69
2022-11-17T07:13:25.411Z,94.58
2022-11-17T07:15:55.475Z,94.42
2022-11-17T07:18:25.117Z,94.47
2022-11-17T07:20:56.143Z,94.38
2022-11-17T07:23:25.855Z,94.40
2022-11-17T07:25:55.682Z,94.33
2022-11-17T07:28:25.310Z,93.61
2022-11-17T07:30:55.372Z,93.60
2022-11-17T07:33:25.171Z,93.39
2022-11-17T07:35:56.193Z,93.05
2022-11-17T07:38:26.101Z,93.00
2022-11-17T07:40:58.627Z,92.02
2022-11-17T07:43:28.587Z,91.56
2022-11-17T07:45:58.478Z,91.42
2022-11-17T07:48:28.066Z,92.27
2022-11-17T07:51:00.643Z,92.56
2022-11-17T07:53:31.621Z,92.54
2022-11-17T07:56:03.880Z,92.99
2022-11-17T07:58:33.914Z,93.87
2022-11-17T08:01:05.860Z,94.49
2022-11-17T08:03:35.643Z,95.08
2022-11-17T08:06:07.403Z,95.37
2022-11-17T08:08:38.185Z,95.67
2022-11-17T08:11:09.039Z,95.96
2022-11-17T08:13:39.692Z,96.22
2022-11-17T08:16:10.685Z,96.51
2022-11-17T08:18:40.832Z,96.97
2022-11-17T08:21:13.786Z,97.29
2022-11-17T08:23:43.904Z,97.01
2022-11-17T08:26:13.444Z,97.12
2022-11-17T08:28:43.006Z,97.77
2022-11-17T08:31:12.674Z,97.94
2022-11-17T08:33:42.217Z,98.38
2022-11-17T08:36:13.299Z,98.71
2022-11-17T08:38:43.020Z,98.38
2022-11-17T08:41:12.574Z,98.95
2022-11-17T08:43:42.168Z,99.00
2022-11-17T08:46:12.899Z,98.72
2022-11-17T08:48:42.535Z,99.00
2022-11-17T08:51:14.773Z,99.44
2022-11-17T08:53:44.358Z,99.04
2022-11-17T08:56:13.869Z,99.67
2022-11-17T08:58:43.939Z,99.60
2022-11-17T09:01:15.782Z,99.52
2022-11-17T09:03:46.716Z,99.92
2022-11-17T09:06:18.036Z,100.00
2022-11-17T09:08:48.782Z,100.00
2022-11-17T09:11:18.504Z,100.00
2022-11-17T09:13:48.634Z,100.00
2022-11-17T09:16:18.851Z,100.00
2022-11-17T09:18:48.540Z,100.00
2022-11-17T09:21:19.480Z,100.00
2022-11-17T09:23:49.336Z,100.00
2022-11-17T09:26:19.272Z,100.00
2022-11-17T09:28:48.982Z,100.00
2022-11-17T09:31:19.397Z,100.00
2022-11-17T09:33:49.044Z,100.00
2022-11-17T09:36:20.539Z,100.00
2022-11-17T09:38:51.013Z,100.00
2022-11-17T09:41:26.357Z,100.00
2022-11-17T09:44:02.982Z,100.00
2022-11-17T09:46:42.571Z,100.00
2022-11-17T09:49:14.500Z,100.00
2022-11-17T09:51:48.433Z,100.00
2022-11-17T09:54:21.759Z,100.00
2022-11-17T09:56:52.418Z,100.00
2022-11-17T09:59:22.955Z,100.00
2022-11-17T10:01:52.718Z,100.00
2022-11-17T10:04:22.953Z,100.00
2022-11-17T10:06:54.205Z,100.00
2022-11-17T10:09:29.185Z,100.00
2022-11-17T10:12:04.037Z,100.00
2022-11-17T10:14:35.914Z,100.00
2022-11-17T10:17:06.111Z,100.00
2022-11-17T10:19:39.583Z,100.00
2022-11-17T10:22:20.418Z,100.00
2022-11-17T10:24:52.218Z,100.00
2022-11-17T10:27:23.805Z,100.00
2022-11-17T10:30:00.684Z,100.00
2022-11-17T10:32:31.249Z,100.00
2022-11-17T10:35:14.512Z,100.00
2022-11-17T10:37:55.525Z,100.00
2022-11-17T10:40:26.734Z,100.00
2022-11-17T10:43:14.370Z,100.00
2022-11-17T10:45:44.753Z,100.00
2022-11-17T10:48:21.209Z,100.00
2022-11-17T10:50:55.167Z,100.00
2022-11-17T10:53:30.918Z,100.00
2022-11-17T10:56:14.553Z,100.00
2022-11-17T10:58:59.202Z,100.00
2022-11-17T11:01:30.192Z,100.00
2022-11-17T11:03:59.899Z,100.00
2022-11-17T11:06:30.683Z,100.00
2022-11-17T11:09:04.783Z,100.00
2022-11-17T11:11:42.443Z,100.00
2022-11-17T11:14:21.186Z,100.00
2022-11-17T11:16:51.718Z,100.00
2022-11-17T11:19:21.693Z,100.00
2022-11-17T11:21:59.365Z,100.00
2022-11-17T11:24:36.040Z,100.00
2022-11-17T11:27:10.431Z,100.00
2022-11-17T11:29:47.022Z,100.00
2022-11-17T11:32:21.495Z,100.00
2022-11-17T11:35:00.977Z,100.00
2022-11-17T11:37:36.269Z,100.00
2022-11-17T11:40:16.158Z,100.00
2022-11-17T11:42:48.805Z,100.00
2022-11-17T11:45:20.459Z,100.00
2022-11-17T11:47:58.428Z,100.00
2022-11-17T11:50:29.390Z,100.00
2022-11-17T11:53:04.174Z,100.00
2022-11-17T11:55:36.034Z,100.00
2022-11-17T11:58:09.942Z,100.00
2022-11-17T12:00:41.253Z,100.00
2022-11-17T12:03:17.621Z,100.00
2022-11-17T12:05:56.947Z,100.00
2022-11-17T12:08:30.690Z,100.00
2022-11-17T12:11:24.207Z,100.00
2022-11-17T12:13:54.756Z,100.00
2022-11-17T12:16:29.586Z,100.00
2022-11-17T12:18:59.186Z,100.00
2022-11-17T12:21:29.894Z,100.00
2022-11-17T12:24:15.443Z,100.00
2022-11-17T12:26:46.631Z,100.00
2022-11-17T12:29:39.864Z,100.00
2022-11-17T12:32:09.879Z,100.00
2022-11-17T12:34:39.522Z,100.00
2022-11-17T12:37:21.786Z,100.00
2022-11-17T12:40:09.792Z,100.00
2022-11-17T12:43:00.829Z,100.00
2022-11-17T12:45:34.291Z,100.00
2022-11-17T12:48:32.277Z,100.00
2022-11-17T12:51:05.043Z,100.00
2022-11-17T12:53:42.440Z,100.00
2022-11-17T12:56:35.971Z,100.00
2022-11-17T12:59:16.726Z,100.00
2022-11-17T13:01:52.903Z,100.00
2022-11-17T13:04:25.402Z,100.00
2022-11-17T13:07:02.198Z,100.00
2022-11-17T13:09:33.406Z,100.00
2022-11-17T13:12:05.492Z,100.00
2022-11-17T13:14:37.962Z,100.00
2022-11-17T13:17:12.454Z,100.00
2022-11-17T13:19:42.590Z,100.00
2022-11-17T13:22:15.898Z,100.00
2022-11-17T13:24:46.743Z,100.00
2022-11-17T13:27:22.231Z,100.00
2022-11-17T13:29:53.774Z,100.00
2022-11-17T13:32:31.479Z,100.00
2022-11-17T13:35:01.754Z,100.00
2022-11-17T13:37:31.729Z,100.00
2022-11-17T13:40:02.391Z,100.00
2022-11-17T13:42:33.370Z,100.00
2022-11-17T13:45:06.225Z,100.00
2022-11-17T13:47:43.378Z,100.00
2022-11-17T13:50:33.425Z,100.00
2022-11-17T13:53:05.300Z,100.00
2022-11-17T13:55:35.751Z,100.00
2022-11-17T13:58:06.558Z,100.00
2022-11-17T14:00:37.682Z,100.00
2022-11-17T14:03:27.350Z,100.00
2022-11-17T14:05:57.603Z,100.00
2022-11-17T14:08:29.341Z,100.00
2022-11-17T14:11:06.173Z,100.00
2022-11-17T14:13:39.680Z,100.00
2022-11-17T14:16:20.515Z,100.00
2022-11-17T14:18:57.370Z,100.00
2022-11-17T14:21:27.423Z,100.00
2022-11-17T14:24:07.306Z,100.00
2022-11-17T14:26:41.863Z,100.00
2022-11-17T14:29:11.864Z,100.00
2022-11-17T14:31:43.281Z,100.00
2022-11-17T14:34:13.303Z,100.00
2022-11-17T14:36:43.389Z,100.00
2022-11-17T14:39:17.376Z,100.00
2022-11-17T14:41:48.300Z,100.00
2022-11-17T14:44:17.938Z,100.00
2022-11-17T14:46:48.857Z,100.00
2022-11-17T14:49:18.895Z,100.00
2022-11-17T14:51:49.255Z,100.00
2022-11-17T14:54:18.796Z,100.00
2022-11-17T14:56:48.453Z,100.00
2022-11-17T14:59:19.197Z,100.00
2022-11-17T15:01:50.338Z,100.00
2022-11-17T15:04:48.973Z,100.00
2022-11-17T15:07:10.008Z,100.00
2022-11-17T15:09:39.714Z,100.00
2022-11-17T15:12:11.190Z,100.00
2022-11-17T15:14:41.248Z,100.00
2022-11-17T15:17:14.480Z,100.00
2022-11-17T15:19:45.304Z,100.00
2022-11-17T15:22:14.925Z,100.00
2022-11-17T15:24:44.894Z,100.00
2022-11-17T15:27:15.959Z,100.00
2022-11-17T15:29:45.859Z,100.00
2022-11-17T15:32:16.929Z,100.00
2022-11-17T15:34:46.742Z,100.00
2022-11-17T15:37:16.303Z,100.00
2022-11-17T15:39:45.930Z,100.00
2022-11-17T15:42:15.647Z,100.00
2022-11-17T15:44:45.189Z,100.00
2022-11-17T15:47:16.098Z,100.00
2022-11-17T15:49:47.043Z,100.00
2022-11-17T15:52:19.533Z,100.00
2022-11-17T15:54:59.842Z,100.00
2022-11-17T15:57:29.692Z,100.00
2022-11-17T16:00:00.686Z,100.00
2022-11-17T16:02:31.838Z,100.00
2022-11-17T16:05:02.140Z,100.00
2022-11-17T16:07:31.864Z,100.00
2022-11-17T16:10:01.827Z,100.00
2022-11-17T16:12:34.922Z,100.00
2022-11-17T16:15:05.654Z,100.00
2022-11-17T16:17:38.543Z,100.00
2022-11-17T16:20:09.153Z,100.00
2022-11-17T16:22:38.824Z,100.00
2022-11-17T16:25:10.428Z,100.00
2022-11-17T16:27:40.073Z,100.00
2022-11-17T16:30:10.177Z,100.00
2022-11-17T16:32:41.206Z,100.00
2022-11-17T16:35:10.747Z,100.00
2022-11-17T16:37:40.338Z,100.00
2022-11-17T16:40:10.871Z,100.00
2022-11-17T16:42:40.506Z,100.00
2022-11-17T16:45:10.192Z,100.00
2022-11-17T16:47:41.127Z,100.00
2022-11-17T16:50:10.970Z,100.00
2022-11-17T16:52:40.560Z,100.00
2022-11-17T16:55:10.499Z,100.00
2022-11-17T16:57:40.068Z,100.00
2022-11-17T17:00:10.416Z,100.00
2022-11-17T17:02:41.454Z,100.00
2022-11-17T17:05:13.531Z,100.00
2022-11-17T17:07:43.132Z,100.00
2022-11-17T17:10:13.061Z,100.00
2022-11-17T17:12:43.318Z,100.00
2022-11-17T17:15:13.503Z,100.00
2022-11-17T17:17:45.357Z,100.00
2022-11-17T17:20:15.049Z,100.00
2022-11-17T17:22:44.882Z,100.00
2022-11-17T17:25:15.139Z,100.00
2022-11-17T17:27:44.650Z,100.00
2022-11-17T17:30:15.057Z,100.00
2022-11-17T17:32:46.033Z,100.00
2022-11-17T17:35:16.250Z,100.00
2022-11-17T17:37:45.890Z,100.00
2022-11-17T17:40:15.931Z,100.00
2022-11-17T17:42:47.380Z,100.00
2022-11-17T17:45:16.967Z,100.00
2022-11-17T17:47:47.887Z,100.00
2022-11-17T17:50:17.962Z,100.00
2022-11-17T17:52:47.690Z,100.00
2022-11-17T17:55:17.629Z,100.00
2022-11-17T17:57:47.293Z,100.00
2022-11-17T18:00:17.676Z,100.00
2022-11-17T18:02:49.052Z,100.00
2022-11-17T18:05:22.454Z,100.00
2022-11-17T18:07:52.263Z,100.00
2022-11-17T18:10:21.803Z,100.00
2022-11-17T18:12:53.307Z,100.00
2022-11-17T18:15:23.061Z,100.00
2022-11-17T18:17:54.675Z,100.00
2022-11-17T18:20:24.712Z,100.00
2022-11-17T18:22:55.495Z,100.00
2022-11-17T18:25:25.329Z,100.00
2022-11-17T18:27:54.903Z,100.00
2022-11-17T18:30:24.682Z,100.00
2022-11-17T18:33:00.251Z,100.00
2022-11-17T18:35:32.703Z,100.00
2022-11-17T18:38:02.477Z,100.00
2022-11-17T18:40:33.357Z,100.00
2022-11-17T18:43:03.306Z,100.00
2022-11-17T18:45:33.111Z,100.00
2022-11-17T18:48:04.106Z,100.00
2022-11-17T18:50:37.349Z,100.00
2022-11-17T18:53:17.239Z,100.00
2022-11-17T18:55:47.001Z,100.00
2022-11-17T18:58:16.553Z,100.00
2022-11-17T19:00:46.343Z,100.00
2022-11-17T19:03:17.478Z,100.00
2022-11-17T19:05:47.219Z,100.00
2022-11-17T19:08:16.780Z,100.00
2022-11-17T19:10:53.397Z,100.00
2022-11-17T19:13:24.083Z,100.00
2022-11-17T19:15:54.411Z,100.00
2022-11-17T19:18:25.465Z,100.00
2022-11-17T19:21:03.559Z,100.00
2022-11-17T19:23:33.687Z,100.00
2022-11-17T19:26:04.113Z,100.00
2022-11-17T19:28:34.031Z,100.00
2022-11-17T19:31:04.076Z,100.00
2022-11-17T19:33:36.544Z,100.00
2022-11-17T19:36:07.239Z,100.00
2022-11-17T19:38:38.536Z,100.00
2022-11-17T19:41:09.195Z,100.00
2022-11-17T19:43:44.545Z,100.00
2022-11-17T19:46:16.334Z,100.00
2022-11-17T19:48:47.423Z,100.00
2022-11-17T19:51:18.527Z,100.00
2022-11-17T19:53:48.636Z,100.00
2022-11-17T19:56:18.687Z,100.00
2022-11-17T19:58:48.789Z,100.00
2022-11-17T20:01:19.058Z,100.00
2022-11-17T20:03:50.451Z,100.00
2022-11-17T20:06:21.234Z,100.00
2022-11-17T20:08:50.966Z,100.00
2022-11-17T20:11:21.466Z,100.00
2022-11-17T20:13:51.922Z,100.00
2022-11-17T20:16:24.592Z,100.00
2022-11-17T20:18:56.997Z,100.00
2022-11-17T20:21:27.455Z,100.00
2022-11-17T20:23:57.421Z,100.00
2022-11-17T20:26:27.980Z,100.00
2022-11-17T20:28:57.824Z,100.00
2022-11-17T20:31:28.254Z,100.00
2022-11-17T20:34:00.665Z,100.00
2022-11-17T20:36:31.162Z,100.00
2022-11-17T20:39:01.647Z,100.00
2022-11-17T20:41:31.395Z,100.00
2022-11-17T20:44:01.947Z,100.00
2022-11-17T20:46:31.756Z,100.00
2022-11-17T20:49:02.872Z,100.00
2022-11-17T20:51:32.477Z,100.00
2022-11-17T20:54:01.948Z,100.00
2022-11-17T20:56:31.888Z,100.00
2022-11-17T20:59:01.761Z,100.00
2022-11-17T21:01:31.556Z,100.00
2022-11-17T21:04:02.597Z,100.00
2022-11-17T21:06:32.219Z,100.00
2022-11-17T21:09:02.048Z,100.00
2022-11-17T21:11:48.855Z,100.00
2022-11-17T21:14:19.175Z,100.00
2022-11-17T21:16:50.021Z,100.00
2022-11-17T21:19:21.025Z,100.00
2022-11-17T21:21:50.785Z,100.00
2022-11-17T21:24:20.571Z,100.00
2022-11-17T21:26:51.275Z,100.00
2022-11-17T21:29:21.243Z,100.00
2022-11-17T21:31:51.010Z,100.00
2022-11-17T21:34:21.878Z,100.00
2022-11-17T21:36:51.578Z,100.00
2022-11-17T21:39:21.105Z,100.00
2022-11-17T21:41:50.745Z,100.00
2022-11-17T21:44:20.438Z,100.00
2022-11-17T21:46:50.258Z,100.00
2022-11-17T21:49:21.250Z,100.00
2022-11-17T21:51:50.836Z,100.00
2022-11-17T21:54:20.391Z,100.00
2022-11-17T21:56:50.063Z,100.00
2022-11-17T21:59:19.976Z,100.00
2022-11-17T22:01:49.561Z,100.00
2022-11-17T22:04:19.316Z,100.00
2022-11-17T22:06:50.244Z,100.00
2022-11-17T22:09:20.068Z,100.00
2022-11-17T22:11:51.462Z,100.00
2022-11-17T22:14:21.387Z,100.00
2022-11-17T22:16:52.550Z,100.00
2022-11-17T22:19:29.175Z,100.00
2022-11-17T22:22:00.317Z,100.00
2022-11-17T22:24:29.852Z,100.00
2022-11-17T22:26:59.391Z,100.00
2022-11-17T22:29:29.204Z,100.00
2022-11-17T22:31:58.784Z,100.00
2022-11-17T22:34:28.516Z,100.00
2022-11-17T22:36:58.045Z,100.00
2022-11-17T22:39:29.139Z,100.00
2022-11-17T22:41:58.743Z,100.00
2022-11-17T22:44:28.404Z,100.00
2022-11-17T22:46:57.963Z,100.00
2022-11-17T22:49:27.595Z,100.00
2022-11-17T22:52:07.513Z,100.00
2022-11-17T22:54:38.422Z,100.00
2022-11-17T22:57:08.150Z,100.00
2022-11-17T22:59:38.690Z,100.00
2022-11-17T23:02:08.289Z,100.00
2022-11-17T23:04:38.093Z,100.00
2022-11-17T23:07:07.696Z,100.00
2022-11-17T23:09:39.406Z,100.00
2022-11-17T23:12:10.245Z,100.00
2022-11-17T23:14:40.398Z,100.00
2022-11-17T23:17:11.274Z,100.00
2022-11-17T23:19:41.058Z,100.00
2022-11-17T23:22:11.803Z,100.00
2022-11-17T23:24:42.801Z,100.00
2022-11-17T23:27:12.677Z,100.00
2022-11-17T23:29:42.200Z,100.00
2022-11-17T23:32:11.875Z,100.00
2022-11-17T23:34:41.507Z,100.00
2022-11-17T23:37:11.022Z,100.00
2022-11-17T23:39:41.935Z,100.00
2022-11-17T23:42:11.453Z,100.00
2022-11-17T23:44:41.038Z,100.00
2022-11-17T23:47:10.743Z,100.00
2022-11-17T23:49:40.279Z,100.00
2022-11-17T23:52:10.027Z,100.00
2022-11-17T23:54:39.553Z,100.00
2022-11-17T23:57:10.449Z,100.00
2022-11-17T23:59:39.957Z,100.00
